createdAt,value
2023-04-09T00:04:38.658Z,8.65
2023-04-09T00:09:41.471Z,7.85
2023-04-09T00:14:44.296Z,10.18
2023-04-09T00:19:47.492Z,8.48
2023-04-09T00:24:50.288Z,10.07
2023-04-09T00:29:56.991Z,12.07
2023-04-09T00:34:59.975Z,11.18
2023-04-09T00:40:03.289Z,11.95
2023-04-09T00:45:07.113Z,7.35
2023-04-09T00:50:10.601Z,8.65
2023-04-09T00:55:14.358Z,6.18
2023-04-09T01:00:17.315Z,8.63
2023-04-09T01:05:20.653Z,6.78
2023-04-09T01:10:32.852Z,9.95
2023-04-09T01:15:41.689Z,8.98
2023-04-09T01:20:57.804Z,6.57
2023-04-09T01:26:19.565Z,8.98
2023-04-09T01:31:34.652Z,11.38
2023-04-09T01:36:41.081Z,8.18
2023-04-09T01:41:44.368Z,8.02
2023-04-09T01:46:48.543Z,6.85
2023-04-09T01:51:51.516Z,8.45
2023-04-09T01:56:54.452Z,5.88
2023-04-09T02:02:05.427Z,6.55
2023-04-09T02:07:26.201Z,8.18
2023-04-09T02:12:32.153Z,7.45
2023-04-09T02:17:35.300Z,10.43
2023-04-09T02:22:39.550Z,6.70
2023-04-09T02:27:42.272Z,6.80
2023-04-09T02:32:44.983Z,7.47
2023-04-09T02:37:47.665Z,9.18
2023-04-09T02:42:52.026Z,6.53
2023-04-09T02:47:54.890Z,7.63
2023-04-09T02:52:57.491Z,6.57
2023-04-09T02:58:02.534Z,11.88
2023-04-09T03:03:05.420Z,15.70
2023-04-09T03:08:08.404Z,8.68
2023-04-09T03:13:14.036Z,7.80
2023-04-09T03:18:16.898Z,15.85
2023-04-09T03:23:19.706Z,9.68
2023-04-09T03:28:24.068Z,10.00
2023-04-09T03:33:29.284Z,7.60
2023-04-09T03:38:34.764Z,10.10
2023-04-09T03:43:44.232Z,6.68
2023-04-09T03:48:50.030Z,13.82
2023-04-09T03:53:53.532Z,8.60
2023-04-09T03:58:56.573Z,7.90
2023-04-09T04:04:08.501Z,7.60
2023-04-09T04:09:25.108Z,6.07
2023-04-09T04:14:39.785Z,3.80
2023-04-09T04:19:52.858Z,5.07
2023-04-09T04:24:56.429Z,5.20
2023-04-09T04:30:02.430Z,3.30
2023-04-09T04:35:28.079Z,4.47
2023-04-09T04:40:35.619Z,5.03
2023-04-09T04:45:38.990Z,4.57
2023-04-09T04:50:47.185Z,3.80
2023-04-09T04:55:50.775Z,4.38
2023-04-09T05:01:00.709Z,6.13
2023-04-09T05:06:06.497Z,4.03
2023-04-09T05:11:18.358Z,6.78
2023-04-09T05:16:23.765Z,5.20
2023-04-09T05:21:35.541Z,6.32
2023-04-09T05:26:38.857Z,5.63
2023-04-09T05:31:43.338Z,4.80
2023-04-09T05:37:06.291Z,6.30
2023-04-09T05:42:10.355Z,6.20
2023-04-09T05:47:31.552Z,5.57
2023-04-09T05:52:42.491Z,4.45
2023-04-09T05:57:47.340Z,3.78
2023-04-09T06:02:51.309Z,4.38
2023-04-09T06:07:54.844Z,3.13
2023-04-09T06:12:57.911Z,5.55
2023-04-09T06:18:01.546Z,3.45
2023-04-09T06:23:04.592Z,4.43
2023-04-09T06:28:07.806Z,4.63
2023-04-09T06:33:11.810Z,6.53
2023-04-09T06:38:18.819Z,5.45
2023-04-09T06:43:22.008Z,4.88
2023-04-09T06:48:27.012Z,4.07
2023-04-09T06:53:29.791Z,4.50
2023-04-09T06:58:32.547Z,3.30
2023-04-09T07:03:35.855Z,3.75
2023-04-09T07:08:38.677Z,5.82
2023-04-09T07:13:41.316Z,4.72
2023-04-09T07:18:44.163Z,5.18
2023-04-09T07:23:47.170Z,3.42
2023-04-09T07:28:50.366Z,4.57
2023-04-09T07:33:53.289Z,4.65
2023-04-09T07:38:56.569Z,8.00
2023-04-09T07:44:03.525Z,4.53
2023-04-09T07:49:07.355Z,7.45
2023-04-09T07:54:10.297Z,4.43
2023-04-09T07:59:13.114Z,4.53
2023-04-09T08:04:16.049Z,6.00
2023-04-09T08:14:21.586Z,3.75
2023-04-09T08:19:25.234Z,3.05
2023-04-09T08:24:28.466Z,5.78
2023-04-09T08:29:32.357Z,4.20
2023-04-09T08:34:35.164Z,9.93
2023-04-09T08:39:38.868Z,7.05
2023-04-09T08:44:41.700Z,8.25
2023-04-09T08:49:44.426Z,5.63
2023-04-09T08:54:47.405Z,5.18
2023-04-09T09:04:55.405Z,7.53
2023-04-09T09:10:00.482Z,5.95
2023-04-09T09:15:03.575Z,5.82
2023-04-09T09:20:36.142Z,6.13
2023-04-09T09:25:41.912Z,5.40
2023-04-09T09:30:48.621Z,5.05
2023-04-09T09:35:55.388Z,3.83
2023-04-09T09:41:02.168Z,6.85
2023-04-09T09:46:05.430Z,11.02
2023-04-09T09:51:11.362Z,8.63
2023-04-09T09:56:22.073Z,4.22
2023-04-09T10:01:28.350Z,4.05
2023-04-09T10:06:38.959Z,5.03
2023-04-09T10:11:48.184Z,6.70
2023-04-09T10:21:59.878Z,6.13
2023-04-09T10:27:16.199Z,4.80
2023-04-09T10:32:26.865Z,4.30
2023-04-09T10:37:30.238Z,7.15
2023-04-09T10:42:39.178Z,5.72
2023-04-09T10:47:51.207Z,6.82
2023-04-09T10:53:00.440Z,7.45
2023-04-09T10:58:10.452Z,7.80
2023-04-09T11:03:22.210Z,6.57
2023-04-09T11:08:29.234Z,5.22
2023-04-09T11:13:33.016Z,7.22
2023-04-09T11:18:37.392Z,6.07
2023-04-09T11:23:40.268Z,10.30
2023-04-09T11:28:44.073Z,7.75
2023-04-09T11:33:47.526Z,7.63
2023-04-09T11:38:51.885Z,5.57
2023-04-09T11:43:54.723Z,5.50
2023-04-09T11:48:57.580Z,4.95
2023-04-09T11:54:03.969Z,5.35
2023-04-09T11:59:08.188Z,6.95
2023-04-09T12:04:20.822Z,3.92
2023-04-09T12:09:25.772Z,3.67
2023-04-09T12:14:28.441Z,5.15
2023-04-09T12:19:31.935Z,9.68
2023-04-09T12:24:34.644Z,8.57
2023-04-09T12:29:37.453Z,7.97
2023-04-09T12:34:40.153Z,13.63
2023-04-09T12:39:43.148Z,8.63
2023-04-09T12:44:46.122Z,9.55
2023-04-09T12:49:50.507Z,6.38
2023-04-09T12:54:53.326Z,8.60
2023-04-09T13:00:00.119Z,4.75
2023-04-09T13:05:03.867Z,8.73
2023-04-09T13:10:07.534Z,4.97
2023-04-09T13:15:30.291Z,10.25
2023-04-09T13:20:53.469Z,7.75
2023-04-09T13:26:00.635Z,10.10
2023-04-09T13:31:23.369Z,6.38
2023-04-09T13:36:28.135Z,5.63
2023-04-09T13:41:32.894Z,9.55
2023-04-09T13:46:54.114Z,7.18
2023-04-09T13:52:15.612Z,8.30
2023-04-09T13:57:36.960Z,5.63
2023-04-09T14:02:40.249Z,7.88
2023-04-09T14:07:46.157Z,8.98
2023-04-09T14:12:49.664Z,9.25
2023-04-09T14:17:52.573Z,8.23
2023-04-09T14:22:55.555Z,8.85
2023-04-09T14:27:59.313Z,10.32
2023-04-09T14:33:04.303Z,7.90
2023-04-09T14:38:07.086Z,11.70
2023-04-09T14:43:09.967Z,11.02
2023-04-09T14:48:12.856Z,7.20
2023-04-09T14:53:15.580Z,6.18
2023-04-09T14:58:18.292Z,11.90
2023-04-09T15:03:22.588Z,11.13
2023-04-09T15:13:28.523Z,8.00
2023-04-09T15:18:31.936Z,7.85
2023-04-09T15:23:35.772Z,12.55
2023-04-09T15:28:38.464Z,11.05
2023-04-09T15:33:44.110Z,16.15
2023-04-09T15:38:47.025Z,7.05
2023-04-09T15:43:51.275Z,9.68
2023-04-09T15:48:54.014Z,16.25
2023-04-09T15:53:57.326Z,16.02
2023-04-09T15:59:02.324Z,18.25
2023-04-09T16:04:05.954Z,18.33
2023-04-09T16:09:08.753Z,35.13
2023-04-09T16:14:11.864Z,30.25
2023-04-09T16:19:18.600Z,42.55
2023-04-09T16:24:22.621Z,43.80
2023-04-09T16:29:25.878Z,44.75
2023-04-09T16:34:32.231Z,37.50
2023-04-09T16:39:35.654Z,38.00
2023-04-09T16:44:38.299Z,30.75
2023-04-09T16:49:41.428Z,26.20
2023-04-09T16:54:45.831Z,25.25
2023-04-09T16:59:51.188Z,35.03
2023-04-09T17:04:54.718Z,21.25
2023-04-09T17:10:00.177Z,24.73
2023-04-09T17:15:02.944Z,22.38
2023-04-09T17:20:07.321Z,23.70
2023-04-09T17:25:10.446Z,25.98
2023-04-09T17:30:14.005Z,19.17
2023-04-09T17:35:21.097Z,25.52
2023-04-09T17:40:23.972Z,27.05
2023-04-09T17:45:29.040Z,23.90
2023-04-09T17:50:33.897Z,24.13
2023-04-09T17:55:37.269Z,27.38
2023-04-09T18:00:41.537Z,38.80
2023-04-09T18:05:44.542Z,33.90
2023-04-09T18:11:04.807Z,32.03
2023-04-09T18:16:14.719Z,36.65
2023-04-09T18:21:19.439Z,39.20
2023-04-09T18:26:22.827Z,32.13
2023-04-09T18:31:28.407Z,40.60
2023-04-09T18:36:31.395Z,39.90
2023-04-09T18:41:34.595Z,34.47
2023-04-09T18:46:37.837Z,58.33
2023-04-09T18:51:42.080Z,50.25
2023-04-09T18:56:47.224Z,55.00
2023-04-09T19:01:52.497Z,41.22
2023-04-09T19:06:55.544Z,52.35
2023-04-09T19:11:58.408Z,46.42
2023-04-09T19:17:03.031Z,39.42
2023-04-09T19:22:05.771Z,26.90
2023-04-09T19:27:10.152Z,31.95
2023-04-09T19:32:13.583Z,30.05
2023-04-09T19:37:19.069Z,29.05
2023-04-09T19:42:21.978Z,25.80
2023-04-09T19:52:30.636Z,38.95
2023-04-09T19:57:33.503Z,22.17
2023-04-09T20:02:38.039Z,26.63
2023-04-09T20:07:41.227Z,20.63
2023-04-09T20:12:48.376Z,23.98
2023-04-09T20:17:51.669Z,29.23
2023-04-09T20:22:56.389Z,28.30
2023-04-09T20:27:59.265Z,28.27
2023-04-09T20:33:02.369Z,30.73
2023-04-09T20:38:05.612Z,22.83
2023-04-09T20:43:08.248Z,20.92
2023-04-09T20:48:11.251Z,18.67
2023-04-09T20:53:14.059Z,17.15
2023-04-09T20:58:17.125Z,19.65
2023-04-09T21:03:20.264Z,22.80
2023-04-09T21:08:23.260Z,21.15
2023-04-09T21:13:27.657Z,26.10
2023-04-09T21:18:30.988Z,25.05
2023-04-09T21:23:33.703Z,25.13
2023-04-09T21:28:36.803Z,27.98
2023-04-09T21:33:39.865Z,28.15
2023-04-09T21:38:42.558Z,27.70
2023-04-09T21:43:45.273Z,28.58
2023-04-09T21:48:47.982Z,21.80
2023-04-09T21:53:50.884Z,24.95
2023-04-09T21:58:53.894Z,23.05
2023-04-09T22:04:00.602Z,34.10
2023-04-09T22:09:03.667Z,28.17
2023-04-09T22:14:06.578Z,43.05
2023-04-09T22:19:09.797Z,26.52
2023-04-09T22:24:14.386Z,26.95
2023-04-09T22:29:17.269Z,26.33
2023-04-09T22:34:21.728Z,25.02
2023-04-09T22:39:25.138Z,23.52
2023-04-09T22:44:28.179Z,25.77
2023-04-09T22:49:31.413Z,23.70
2023-04-09T22:54:34.009Z,20.38
2023-04-09T22:59:40.632Z,17.70
2023-04-09T23:04:43.975Z,16.10
2023-04-09T23:09:46.828Z,15.63
2023-04-09T23:14:51.471Z,15.13
2023-04-09T23:19:54.531Z,11.27
2023-04-09T23:24:58.212Z,11.90
2023-04-09T23:30:01.526Z,14.50
2023-04-09T23:35:04.956Z,9.65
2023-04-09T23:40:08.444Z,14.15
2023-04-09T23:45:11.969Z,14.02
2023-04-09T23:50:14.821Z,10.88
2023-04-09T23:55:17.992Z,8.57
